createdAt,value
2023-05-01T00:00:18.400Z,99581.84
2023-05-01T00:02:45.348Z,99581.00
2023-05-01T00:05:12.439Z,99579.75
2023-05-01T00:07:39.223Z,99578.00
2023-05-01T00:10:07.319Z,99579.25
2023-05-01T00:12:34.162Z,99572.25
2023-05-01T00:15:00.921Z,99572.47
2023-05-01T00:17:28.312Z,99566.31
2023-05-01T00:19:55.842Z,99567.19
2023-05-01T00:22:22.763Z,99565.38
2023-05-01T00:24:50.220Z,99558.69
2023-05-01T00:27:17.273Z,99569.88
2023-05-01T00:29:43.998Z,99564.00
2023-05-01T00:32:10.802Z,99564.91
2023-05-01T00:34:37.680Z,99562.88
2023-05-01T00:37:04.427Z,99563.00
2023-05-01T00:39:31.391Z,99560.22
2023-05-01T00:41:58.176Z,99553.22
2023-05-01T00:44:24.899Z,99557.94
2023-05-01T00:46:51.900Z,99554.78
2023-05-01T00:49:18.928Z,99547.25
2023-05-01T00:51:49.632Z,99550.00
2023-05-01T00:54:17.630Z,99554.25
2023-05-01T00:56:44.368Z,99557.22
2023-05-01T00:59:11.169Z,99559.38
2023-05-01T01:01:38.171Z,99565.59
2023-05-01T01:04:05.311Z,99571.09
2023-05-01T01:07:03.058Z,99581.97
2023-05-01T01:10:05.672Z,99581.75
2023-05-01T01:12:39.518Z,99573.75
2023-05-01T01:15:30.373Z,99571.47
2023-05-01T01:18:09.815Z,99570.50
2023-05-01T01:20:38.054Z,99566.56
2023-05-01T01:23:49.815Z,99565.16
2023-05-01T01:26:39.597Z,99561.72
2023-05-01T01:29:51.541Z,99574.25
2023-05-01T01:32:42.476Z,99586.19
2023-05-01T01:35:17.238Z,99582.50
2023-05-01T01:38:32.647Z,99578.03
2023-05-01T01:41:07.528Z,99580.56
2023-05-01T01:43:40.670Z,99580.16
2023-05-01T01:46:10.713Z,99570.72
2023-05-01T01:48:42.947Z,99568.56
2023-05-01T01:51:14.662Z,99573.25
2023-05-01T01:53:43.655Z,99566.13
2023-05-01T01:56:10.908Z,99576.34
2023-05-01T01:58:40.703Z,99567.78
2023-05-01T02:01:08.402Z,99578.00
2023-05-01T02:03:37.920Z,99581.31
2023-05-01T02:06:06.799Z,99591.75
2023-05-01T02:08:36.501Z,99601.81
2023-05-01T02:11:05.188Z,99600.03
2023-05-01T02:13:34.017Z,99600.66
2023-05-01T02:16:04.170Z,99590.44
2023-05-01T02:18:31.883Z,99600.22
2023-05-01T02:21:00.890Z,99599.78
2023-05-01T02:23:28.735Z,99598.13
2023-05-01T02:25:57.925Z,99604.25
2023-05-01T02:28:27.316Z,99599.94
2023-05-01T02:30:54.243Z,99598.88
2023-05-01T02:33:21.022Z,99613.75
2023-05-01T02:35:47.806Z,99614.59
2023-05-01T02:38:16.441Z,99619.44
2023-05-01T02:40:49.230Z,99622.75
2023-05-01T02:43:20.262Z,99618.06
2023-05-01T02:45:48.237Z,99627.47
2023-05-01T02:48:20.637Z,99628.66
2023-05-01T02:50:49.476Z,99638.06
2023-05-01T02:53:16.668Z,99642.19
2023-05-01T02:55:43.678Z,99649.75
2023-05-01T02:58:16.028Z,99646.72
2023-05-01T03:00:43.473Z,99610.88
2023-05-01T03:03:10.920Z,99653.78
2023-05-01T03:05:38.989Z,99649.91
2023-05-01T03:08:06.445Z,99645.19
2023-05-01T03:10:33.626Z,99662.09
2023-05-01T03:13:01.260Z,99655.34
2023-05-01T03:15:28.395Z,99655.69
2023-05-01T03:17:55.160Z,99654.28
2023-05-01T03:20:22.002Z,99662.47
2023-05-01T03:22:48.685Z,99671.53
2023-05-01T03:25:15.910Z,99673.38
2023-05-01T03:27:42.705Z,99685.22
2023-05-01T03:30:10.357Z,99679.13
2023-05-01T03:32:37.248Z,99675.06
2023-05-01T03:35:04.204Z,99668.94
2023-05-01T03:37:31.285Z,99673.28
2023-05-01T03:39:58.124Z,99677.00
2023-05-01T03:42:25.078Z,99676.09
2023-05-01T03:44:51.813Z,99667.28
2023-05-01T03:47:19.478Z,99673.28
2023-05-01T03:49:46.308Z,99662.72
2023-05-01T03:52:13.471Z,99673.00
2023-05-01T03:54:40.203Z,99675.44
2023-05-01T03:57:07.328Z,99681.59
2023-05-01T03:59:34.278Z,99681.44
2023-05-01T04:02:00.965Z,99692.28
2023-05-01T04:04:29.757Z,99683.69
2023-05-01T04:06:57.072Z,99685.97
2023-05-01T04:09:23.806Z,99686.59
2023-05-01T04:11:50.534Z,99685.97
2023-05-01T04:14:17.175Z,99691.47
2023-05-01T04:16:43.937Z,99697.78
2023-05-01T04:19:10.803Z,99697.13
2023-05-01T04:21:37.545Z,99705.31
2023-05-01T04:24:04.520Z,99708.56
2023-05-01T04:26:31.301Z,99714.88
2023-05-01T04:28:58.088Z,99713.41
2023-05-01T04:31:24.831Z,99720.63
2023-05-01T04:33:51.888Z,99721.69
2023-05-01T04:36:18.667Z,99730.50
2023-05-01T04:38:45.338Z,99733.16
2023-05-01T04:41:12.051Z,99722.28
2023-05-01T04:43:38.970Z,99745.00
2023-05-01T04:46:05.840Z,99747.44
2023-05-01T04:48:32.595Z,99756.81
2023-05-01T04:50:59.323Z,99717.28
2023-05-01T04:53:26.036Z,99757.81
2023-05-01T04:55:53.050Z,99773.13
2023-05-01T04:58:19.741Z,99767.75
2023-05-01T05:00:46.382Z,99766.06
2023-05-01T05:03:13.171Z,99760.66
2023-05-01T05:05:40.124Z,99761.75
2023-05-01T05:08:07.560Z,99766.13
2023-05-01T05:10:34.341Z,99769.53
2023-05-01T05:13:01.175Z,99770.31
2023-05-01T05:15:27.937Z,99775.25
2023-05-01T05:17:56.486Z,99778.03
2023-05-01T05:20:23.508Z,99780.50
2023-05-01T05:22:50.193Z,99797.28
2023-05-01T05:25:17.141Z,99797.00
2023-05-01T05:27:43.849Z,99810.03
2023-05-01T05:30:11.385Z,99818.19
2023-05-01T05:32:38.180Z,99826.69
2023-05-01T05:35:05.689Z,99827.41
2023-05-01T05:37:32.460Z,99836.63
2023-05-01T05:39:59.183Z,99842.84
2023-05-01T05:42:25.859Z,99844.31
2023-05-01T05:44:53.151Z,99856.59
2023-05-01T05:47:19.850Z,99850.53
2023-05-01T05:49:46.771Z,99858.19
2023-05-01T05:52:13.839Z,99870.09
2023-05-01T05:54:40.936Z,99861.31
2023-05-01T05:57:07.675Z,99876.31
2023-05-01T05:59:34.383Z,99881.97
2023-05-01T06:02:01.313Z,99887.13
2023-05-01T06:04:28.026Z,99898.34
2023-05-01T06:06:55.226Z,99904.00
2023-05-01T06:09:22.078Z,99896.63
2023-05-01T06:11:49.240Z,99908.03
2023-05-01T06:14:16.991Z,99906.78
2023-05-01T06:16:43.792Z,99908.53
2023-05-01T06:19:12.299Z,99906.78
2023-05-01T06:21:39.130Z,99921.31
2023-05-01T06:24:06.547Z,99900.75
2023-05-01T06:26:33.270Z,99929.03
2023-05-01T06:29:00.063Z,99919.72
2023-05-01T06:31:27.224Z,99938.94
2023-05-01T06:33:54.527Z,99940.19
2023-05-01T06:36:21.217Z,99936.06
2023-05-01T06:38:49.445Z,99942.03
2023-05-01T06:41:16.583Z,99951.47
2023-05-01T06:43:43.342Z,99949.16
2023-05-01T06:46:10.177Z,99946.81
2023-05-01T06:48:37.105Z,99946.34
2023-05-01T06:51:03.880Z,99941.50
2023-05-01T06:53:30.798Z,99939.38
2023-05-01T06:55:57.970Z,99955.72
2023-05-01T06:58:24.811Z,99940.97
2023-05-01T07:00:52.758Z,99959.94
2023-05-01T07:03:19.938Z,99964.50
2023-05-01T07:05:46.676Z,99961.09
2023-05-01T07:08:14.458Z,99967.94
2023-05-01T07:10:42.330Z,99974.47
2023-05-01T07:13:09.808Z,99980.31
2023-05-01T07:15:36.773Z,99984.00
2023-05-01T07:18:06.005Z,99993.66
2023-05-01T07:20:34.758Z,99993.84
2023-05-01T07:23:01.825Z,99997.94
2023-05-01T07:25:28.598Z,99993.81
2023-05-01T07:27:55.491Z,100007.22
2023-05-01T07:30:22.352Z,100012.38
2023-05-01T07:32:49.137Z,100013.84
2023-05-01T07:35:15.959Z,100022.91
2023-05-01T07:37:42.622Z,100015.41
2023-05-01T07:40:09.667Z,100019.06
2023-05-01T07:42:36.628Z,100014.06
2023-05-01T07:45:03.711Z,100024.50
2023-05-01T07:47:30.815Z,100012.94
2023-05-01T07:49:57.884Z,100023.56
2023-05-01T07:52:24.859Z,100014.09
2023-05-01T07:54:51.725Z,100031.88
2023-05-01T07:57:19.053Z,100038.03
2023-05-01T07:59:45.861Z,100042.13
2023-05-01T08:02:14.013Z,100036.41
2023-05-01T08:04:41.924Z,100040.59
2023-05-01T08:07:08.971Z,100042.31
2023-05-01T08:09:35.857Z,100037.28
2023-05-01T08:12:04.115Z,100043.97
2023-05-01T08:14:31.057Z,100051.75
2023-05-01T08:16:57.908Z,100034.38
2023-05-01T08:19:24.811Z,100049.28
2023-05-01T08:21:51.594Z,100053.28
2023-05-01T08:24:18.390Z,100048.06
2023-05-01T08:26:45.167Z,100049.03
2023-05-01T08:29:12.222Z,100051.63
2023-05-01T08:31:39.543Z,100047.28
2023-05-01T08:34:06.498Z,100043.59
2023-05-01T08:36:33.245Z,100054.06
2023-05-01T08:41:54.185Z,100056.34
2023-05-01T08:44:21.148Z,100053.72
2023-05-01T08:46:49.719Z,100051.88
2023-05-01T08:49:17.586Z,100033.19
2023-05-01T08:51:50.838Z,100048.31
2023-05-01T08:54:19.906Z,100050.81
2023-05-01T08:56:51.801Z,100044.84
2023-05-01T08:59:19.571Z,100036.72
2023-05-01T09:01:47.504Z,100042.50
2023-05-01T09:04:16.558Z,100038.56
2023-05-01T09:06:45.101Z,100037.19
2023-05-01T09:09:12.096Z,100033.13
2023-05-01T09:11:39.671Z,100033.31
2023-05-01T09:14:08.607Z,100044.06
2023-05-01T09:16:35.696Z,100035.72
2023-05-01T09:19:02.504Z,100037.41
2023-05-01T09:21:31.752Z,100035.53
2023-05-01T09:23:58.551Z,100035.72
2023-05-01T09:26:26.822Z,100030.06
2023-05-01T09:28:58.112Z,100034.47
2023-05-01T09:31:30.441Z,100035.31
2023-05-01T09:34:02.265Z,100037.69
2023-05-01T09:39:28.486Z,100041.22
2023-05-01T09:41:55.942Z,100034.66
2023-05-01T09:44:22.783Z,100053.72
2023-05-01T09:46:49.713Z,100035.00
2023-05-01T09:49:16.385Z,100035.28
2023-05-01T09:51:43.412Z,100041.22
2023-05-01T09:54:19.609Z,100042.63
2023-05-01T09:56:48.358Z,100020.94
2023-05-01T09:59:21.612Z,100030.66
2023-05-01T10:01:50.501Z,100036.38
2023-05-01T10:04:18.296Z,100040.13
2023-05-01T10:06:45.403Z,100040.16
2023-05-01T10:09:17.763Z,100045.03
2023-05-01T10:11:56.230Z,100027.41
2023-05-01T10:14:28.237Z,100039.34
2023-05-01T10:16:56.970Z,100036.66
2023-05-01T10:19:23.733Z,100037.13
2023-05-01T10:21:50.613Z,100040.69
2023-05-01T10:24:18.757Z,100041.50
2023-05-01T10:26:48.997Z,100030.66
2023-05-01T10:29:16.021Z,100026.59
2023-05-01T10:31:43.353Z,100028.47
2023-05-01T10:34:16.849Z,100018.50
2023-05-01T10:36:54.862Z,100033.66
2023-05-01T10:39:35.799Z,100034.69
2023-05-01T10:42:17.821Z,100031.47
2023-05-01T10:44:46.390Z,100024.13
2023-05-01T10:47:25.633Z,100024.38
2023-05-01T10:50:09.754Z,100021.44
2023-05-01T10:53:11.526Z,100019.00
2023-05-01T10:55:51.179Z,100022.22
2023-05-01T10:58:36.853Z,100026.59
2023-05-01T11:01:30.077Z,100021.41
2023-05-01T11:03:58.559Z,100029.91
2023-05-01T11:06:26.146Z,100033.13
2023-05-01T11:08:53.497Z,100023.16
2023-05-01T11:11:20.165Z,100021.63
2023-05-01T11:13:59.453Z,100024.31
2023-05-01T11:16:44.291Z,100024.09
2023-05-01T11:19:12.257Z,100020.91
2023-05-01T11:21:41.957Z,100014.59
2023-05-01T11:27:05.183Z,99999.28
2023-05-01T11:29:35.041Z,100023.06
2023-05-01T11:32:01.958Z,100014.84
2023-05-01T11:34:37.937Z,100013.03
2023-05-01T11:37:04.712Z,100015.19
2023-05-01T11:39:31.690Z,100030.94
2023-05-01T11:42:09.213Z,100004.94
2023-05-01T11:44:35.974Z,100000.31
2023-05-01T11:47:02.651Z,100011.34
2023-05-01T11:49:29.674Z,100012.69
2023-05-01T11:51:59.532Z,100023.44
2023-05-01T11:54:27.188Z,100007.38
2023-05-01T11:57:01.219Z,100011.41
2023-05-01T11:59:28.403Z,100010.06
2023-05-01T12:01:55.331Z,100002.72
2023-05-01T12:04:31.910Z,99998.50
2023-05-01T12:06:59.249Z,99989.53
2023-05-01T12:09:29.951Z,100004.59
2023-05-01T12:11:59.733Z,100006.69
2023-05-01T12:14:26.667Z,100007.38
2023-05-01T12:16:53.792Z,100003.53
2023-05-01T12:19:23.984Z,99989.97
2023-05-01T12:22:06.072Z,100003.31
2023-05-01T12:24:32.911Z,100002.66
2023-05-01T12:27:03.702Z,99996.81
2023-05-01T12:29:44.819Z,99979.84
2023-05-01T12:32:11.802Z,100002.72
2023-05-01T12:34:39.156Z,100021.16
2023-05-01T12:37:06.139Z,100004.81
2023-05-01T12:39:42.301Z,99995.88
2023-05-01T12:42:14.478Z,99996.63
2023-05-01T12:44:41.517Z,100000.94
2023-05-01T12:47:09.275Z,100006.16
2023-05-01T12:49:37.483Z,99995.16
2023-05-01T12:52:07.564Z,99992.28
2023-05-01T12:54:39.202Z,99975.63
2023-05-01T12:57:14.766Z,99995.13
2023-05-01T12:59:44.321Z,99996.94
2023-05-01T13:02:15.283Z,99991.69
2023-05-01T13:04:43.842Z,99999.13
2023-05-01T13:07:18.296Z,100003.13
2023-05-01T13:09:56.243Z,99994.63
2023-05-01T13:12:24.385Z,99994.81
2023-05-01T13:14:51.854Z,99997.97
2023-05-01T13:17:30.810Z,99991.66
2023-05-01T13:20:04.936Z,99994.56
2023-05-01T13:22:36.258Z,99987.91
2023-05-01T13:25:05.342Z,99999.72
2023-05-01T13:27:32.620Z,99978.50
2023-05-01T13:30:00.683Z,99981.53
2023-05-01T13:32:28.281Z,99982.41
2023-05-01T13:34:56.182Z,99991.84
2023-05-01T13:37:23.178Z,99992.38
2023-05-01T13:39:49.778Z,100003.66
2023-05-01T13:42:26.224Z,99981.34
2023-05-01T13:44:57.814Z,100011.38
2023-05-01T13:47:27.089Z,100005.47
2023-05-01T13:49:54.468Z,100010.69
2023-05-01T13:52:21.447Z,100011.16
2023-05-01T13:57:43.402Z,100009.13
2023-05-01T14:00:17.749Z,100003.28
2023-05-01T14:02:48.432Z,100005.34
2023-05-01T14:05:16.377Z,99943.75
2023-05-01T14:07:53.882Z,100006.81
2023-05-01T14:10:23.220Z,100009.19
2023-05-01T14:12:50.995Z,100016.88
2023-05-01T14:15:17.870Z,100015.78
2023-05-01T14:17:44.935Z,100012.31
2023-05-01T14:20:11.984Z,100021.28
2023-05-01T14:22:47.480Z,100020.84
2023-05-01T14:25:24.539Z,100009.31
2023-05-01T14:27:52.664Z,100014.72
2023-05-01T14:30:40.215Z,100019.84
2023-05-01T14:33:11.869Z,100022.03
2023-05-01T14:35:50.695Z,100022.44
2023-05-01T14:38:19.198Z,100020.00
2023-05-01T14:40:46.177Z,100027.22
2023-05-01T14:43:20.496Z,100032.72
2023-05-01T14:45:49.240Z,100021.94
2023-05-01T14:48:23.477Z,100025.31
2023-05-01T14:50:51.326Z,100022.34
2023-05-01T14:53:18.125Z,100025.31
2023-05-01T14:55:44.828Z,100026.25
2023-05-01T14:58:11.476Z,100025.09
2023-05-01T15:00:38.208Z,100024.31
2023-05-01T15:03:04.982Z,100033.19
2023-05-01T15:05:31.738Z,100029.06
2023-05-01T15:08:00.533Z,100032.88
2023-05-01T15:10:28.989Z,100025.94
2023-05-01T15:12:55.852Z,100032.72
2023-05-01T15:15:22.551Z,100022.19
2023-05-01T15:17:49.300Z,100035.63
2023-05-01T15:20:16.011Z,100024.19
2023-05-01T15:22:42.624Z,100025.78
2023-05-01T15:25:10.980Z,100023.31
2023-05-01T15:27:37.981Z,100030.47
2023-05-01T15:30:05.343Z,100023.69
2023-05-01T15:32:32.319Z,100037.91
2023-05-01T15:34:59.287Z,100042.59
2023-05-01T15:37:26.214Z,100046.09
2023-05-01T15:39:53.293Z,100041.81
2023-05-01T15:42:20.413Z,100046.25
2023-05-01T15:44:47.930Z,100041.50
2023-05-01T15:47:15.006Z,100036.44
2023-05-01T15:49:41.824Z,100037.81
2023-05-01T15:52:08.540Z,100047.16
2023-05-01T15:54:35.441Z,100039.63
2023-05-01T15:57:03.212Z,100043.97
2023-05-01T15:59:31.013Z,100026.28
2023-05-01T16:01:57.825Z,100044.06
2023-05-01T16:04:24.902Z,100035.28
2023-05-01T16:06:51.803Z,100043.84
2023-05-01T16:09:19.355Z,100048.50
2023-05-01T16:11:46.145Z,100044.91
2023-05-01T16:14:15.731Z,100042.28
2023-05-01T16:16:43.490Z,100047.97
2023-05-01T16:19:15.792Z,100048.00
2023-05-01T16:21:42.559Z,100046.94
2023-05-01T16:24:10.510Z,100048.50
2023-05-01T16:26:37.696Z,100058.66
2023-05-01T16:29:08.349Z,100061.47
2023-05-01T16:31:39.374Z,100061.31
2023-05-01T16:34:07.220Z,100063.28
2023-05-01T16:36:42.514Z,100063.59
2023-05-01T16:39:14.273Z,100063.78
2023-05-01T16:41:46.051Z,100071.63
2023-05-01T16:44:17.215Z,100010.06
2023-05-01T16:46:55.522Z,100065.88
2023-05-01T16:49:29.595Z,100064.97
2023-05-01T16:51:57.424Z,100079.19
2023-05-01T16:54:32.020Z,100073.59
2023-05-01T16:56:59.417Z,100082.75
2023-05-01T16:59:28.156Z,100077.94
2023-05-01T17:01:54.995Z,100090.25
2023-05-01T17:04:22.074Z,100092.28
2023-05-01T17:06:49.215Z,100092.28
2023-05-01T17:09:16.034Z,100094.53
2023-05-01T17:11:43.393Z,100097.69
2023-05-01T17:14:10.148Z,100080.00
2023-05-01T17:16:36.945Z,100096.16
2023-05-01T17:19:08.932Z,100105.41
2023-05-01T17:21:36.235Z,100108.72
2023-05-01T17:24:03.005Z,100114.59
2023-05-01T17:26:29.670Z,100111.13
2023-05-01T17:28:56.318Z,100115.66
2023-05-01T17:31:23.168Z,100126.22
2023-05-01T17:33:50.026Z,100133.97
2023-05-01T17:36:16.743Z,100133.97
2023-05-01T17:38:43.871Z,100136.94
2023-05-01T17:41:10.719Z,100142.47
2023-05-01T17:43:37.591Z,100137.91
2023-05-01T17:46:05.137Z,100142.13
2023-05-01T17:48:32.113Z,100144.78
2023-05-01T17:50:58.961Z,100144.97
2023-05-01T17:53:26.090Z,100154.78
2023-05-01T17:55:53.018Z,100163.19
2023-05-01T17:58:20.668Z,100155.75
2023-05-01T18:00:47.845Z,100155.75
2023-05-01T18:03:14.756Z,100166.81
2023-05-01T18:05:41.591Z,100169.19
2023-05-01T18:08:08.288Z,100178.41
2023-05-01T18:10:35.016Z,100170.63
2023-05-01T18:13:01.881Z,100175.53
2023-05-01T18:15:28.652Z,100172.91
2023-05-01T18:17:55.511Z,100183.28
2023-05-01T18:20:22.547Z,100157.09
2023-05-01T18:22:50.073Z,100191.03
2023-05-01T18:25:17.338Z,100169.91
2023-05-01T18:27:45.281Z,100188.41
2023-05-01T18:30:12.173Z,100196.22
2023-05-01T18:32:47.622Z,100200.75
2023-05-01T18:35:17.042Z,100198.44
2023-05-01T18:37:44.258Z,100213.03
2023-05-01T18:40:11.655Z,100221.09
2023-05-01T18:42:41.358Z,100220.84
2023-05-01T18:45:09.998Z,100221.69
2023-05-01T18:47:36.853Z,100228.28
2023-05-01T18:50:04.201Z,100229.91
2023-05-01T18:52:31.206Z,100223.50
2023-05-01T18:54:57.986Z,100243.44
2023-05-01T18:57:24.664Z,100235.84
2023-05-01T18:59:51.466Z,100244.69
2023-05-01T19:02:18.143Z,100254.63
2023-05-01T19:04:56.813Z,100250.31
2023-05-01T19:07:26.043Z,100265.91
2023-05-01T19:09:52.876Z,100268.34
2023-05-01T19:12:19.550Z,100264.06
2023-05-01T19:14:46.296Z,100272.03
2023-05-01T19:17:13.076Z,100279.03
2023-05-01T19:19:39.783Z,100285.38
2023-05-01T19:22:07.428Z,100283.91
2023-05-01T19:24:34.152Z,100280.63
2023-05-01T19:27:03.448Z,100285.34
2023-05-01T19:29:33.363Z,100283.94
2023-05-01T19:32:00.421Z,100304.69
2023-05-01T19:34:27.882Z,100304.69
2023-05-01T19:36:57.139Z,100304.91
2023-05-01T19:39:24.017Z,100306.09
2023-05-01T19:41:51.078Z,100309.59
2023-05-01T19:44:18.424Z,100309.59
2023-05-01T19:46:45.181Z,100285.53
2023-05-01T19:49:12.489Z,100303.16
2023-05-01T19:51:39.139Z,100307.22
2023-05-01T19:54:05.726Z,100301.25
2023-05-01T19:56:32.329Z,100315.63
2023-05-01T19:58:59.020Z,100309.84
2023-05-01T20:01:25.711Z,100306.16
2023-05-01T20:03:52.633Z,100311.91
2023-05-01T20:06:19.383Z,100327.66
2023-05-01T20:08:47.228Z,100322.53
2023-05-01T20:11:14.219Z,100322.31
2023-05-01T20:13:41.310Z,100321.13
2023-05-01T20:16:09.717Z,100319.63
2023-05-01T20:18:36.597Z,100300.28
2023-05-01T20:21:03.444Z,100326.16
2023-05-01T20:23:30.230Z,100329.09
2023-05-01T20:25:56.968Z,100332.81
2023-05-01T20:28:23.633Z,100343.50
2023-05-01T20:30:50.815Z,100330.38
2023-05-01T20:33:18.067Z,100335.31
2023-05-01T20:35:45.407Z,100338.59
2023-05-01T20:38:12.201Z,100339.63
2023-05-01T20:40:40.352Z,100342.94
2023-05-01T20:43:07.359Z,100329.97
2023-05-01T20:45:34.386Z,100342.09
2023-05-01T20:48:01.951Z,100340.66
2023-05-01T20:50:29.390Z,100343.94
2023-05-01T20:52:56.397Z,100340.47
2023-05-01T20:55:23.975Z,100339.66
2023-05-01T20:57:50.760Z,100345.56
2023-05-01T21:00:17.553Z,100353.94
2023-05-01T21:02:45.116Z,100352.38
2023-05-01T21:05:13.840Z,100360.66
2023-05-01T21:07:40.951Z,100356.56
2023-05-01T21:10:10.448Z,100344.59
2023-05-01T21:12:37.637Z,100354.41
2023-05-01T21:15:04.825Z,100354.97
2023-05-01T21:17:33.238Z,100360.50
2023-05-01T21:20:00.314Z,100353.56
2023-05-01T21:22:27.820Z,100361.34
2023-05-01T21:24:57.037Z,100364.75
2023-05-01T21:27:24.987Z,100362.53
2023-05-01T21:29:59.698Z,100367.03
2023-05-01T21:32:32.760Z,100357.56
2023-05-01T21:35:00.635Z,100349.94
2023-05-01T21:37:27.756Z,100372.16
2023-05-01T21:39:54.608Z,100360.06
2023-05-01T21:42:21.330Z,100365.78
2023-05-01T21:44:48.178Z,100364.75
2023-05-01T21:47:15.930Z,100366.25
2023-05-01T21:49:42.750Z,100372.75
2023-05-01T21:52:09.466Z,100365.53
2023-05-01T21:54:37.117Z,100353.56
2023-05-01T21:57:08.078Z,100370.44
2023-05-01T21:59:39.247Z,100343.97
2023-05-01T22:02:11.113Z,100361.91
2023-05-01T22:04:38.837Z,100364.28
2023-05-01T22:07:06.432Z,100359.06
2023-05-01T22:09:33.302Z,100365.91
2023-05-01T22:12:00.169Z,100370.59
2023-05-01T22:14:33.635Z,100364.41
2023-05-01T22:17:06.893Z,100368.53
2023-05-01T22:19:33.642Z,100360.59
2023-05-01T22:22:00.567Z,100366.06
2023-05-01T22:24:27.205Z,100364.16
2023-05-01T22:26:53.874Z,100363.50
2023-05-01T22:29:20.560Z,100358.91
2023-05-01T22:31:47.367Z,100343.94
2023-05-01T22:34:14.210Z,100355.41
2023-05-01T22:36:42.206Z,100364.59
2023-05-01T22:39:08.991Z,100360.09
2023-05-01T22:41:35.638Z,100356.31
2023-05-01T22:44:02.309Z,100355.91
2023-05-01T22:46:29.094Z,100352.69
2023-05-01T22:48:56.009Z,100350.53
2023-05-01T22:51:22.651Z,100349.66
2023-05-01T22:53:49.716Z,100350.16
2023-05-01T22:56:16.457Z,100353.41
2023-05-01T22:58:43.129Z,100351.47
2023-05-01T23:01:09.871Z,100345.44
2023-05-01T23:03:38.778Z,100358.25
2023-05-01T23:06:06.510Z,100351.97
2023-05-01T23:08:36.038Z,100351.25
2023-05-01T23:11:04.604Z,100355.09
2023-05-01T23:13:32.299Z,100352.25
2023-05-01T23:15:59.804Z,100354.22
2023-05-01T23:18:33.379Z,100352.41
2023-05-01T23:21:00.212Z,100351.00
2023-05-01T23:23:31.127Z,100360.44
2023-05-01T23:25:58.097Z,100352.94
2023-05-01T23:28:26.240Z,100353.06
2023-05-01T23:30:57.203Z,100350.38
2023-05-01T23:33:31.808Z,100341.75
2023-05-01T23:35:58.542Z,100347.53
2023-05-01T23:38:25.276Z,100351.28
2023-05-01T23:40:52.104Z,100345.63
2023-05-01T23:43:20.236Z,100346.28
2023-05-01T23:45:47.062Z,100343.16
2023-05-01T23:48:14.329Z,100350.19
2023-05-01T23:50:41.177Z,100347.25
2023-05-01T23:53:08.856Z,100344.38
2023-05-01T23:55:36.299Z,100329.53
2023-05-01T23:58:03.212Z,100343.34
